Tanhoj, Russia
Current Conditions -  °F | °C
As of 7:00 PM on Monday 20 Oct 2014 (Local Time) from UIII Reporting Station
Clear Clear  
Wind Chill: 17°   Ceiling: Unl
Heat Index: 23°   Visibility: 6mi
Dew Point:   Wind: 4mph
Humidity: 54%   Direction: 40°NE
Pressure: 30.21"   Gusts: NA
Location:  51.55°N, 105.13°E
Report Text: UIII 201100Z 04002MPS CAVOK M05/M13 Q1023 NOSIG RMK QFE724/096612CLRD60
Loading
Personal Weather Stations






























Interactive Weather Map
Tropical Storm Tracking
New forecast layout! Learn more

10-Day Weather Forecast

Advertisements
Track Severe Weather on mobile